Time;durP1;ratioP1;P1;durP2;ratioP2;P2;SDS_P1;SDS_P2;PMS_P1;PMS_P2;Temp;Humidity;BMP_temperature;BMP_pressure;BME280_temperature;BME280_humidity;BME280_pressure;Samples;Min_cycle;Max_cycle;Signal;HPM_P1;HPM_P2
2023/06/06 08:03:55;;;;;;;;;;;;;;;5.77;100.00;99735.66;5980922;23;20346;-92
2023/06/06 08:06:42;;;;;;;;;;;;;;;5.76;100.00;99731.31;5975969;24;19938;-91
2023/06/06 08:09:08;;;;;;;;;;;;;;;15.00;100.00;99702.47;6116291;23;19913;-91
2023/06/06 08:11:36;;;;;;;;;;;;;;;7.93;100.00;99719.06;6099324;23;20372;-92
2023/06/06 08:14:01;;;;;;;;;;;;;;;6.88;100.00;99727.53;6124101;23;19920;-91
2023/06/06 08:16:27;;;;;;;;;;;;;;;6.75;100.00;99733.19;6099284;23;19913;-92
2023/06/06 08:18:52;;;;;;;;;;;;;;;6.75;100.00;99722.66;6124593;23;20253;-90
2023/06/06 08:21:22;;;;;;;;;;;;;;;6.71;100.00;99721.88;6124585;23;19913;-93
2023/06/06 08:23:47;;;;;;;;;;;;;;;15.37;100.00;99710.81;6099836;23;19917;-88
2023/06/06 08:26:12;;;;;;;;;;;;;;;18.01;100.00;99673.88;6126291;23;19964;-92
2023/06/06 08:28:40;;;;;;;;;;;;;;;11.83;100.00;99702.28;6125051;23;19913;-91
2023/06/06 08:31:05;;;;;;;;;;;;;;;8.34;100.00;99719.44;6099061;23;19913;-88
2023/06/06 08:33:35;;;;;;;;;;;;;;;7.61;100.00;99730.63;6125743;23;19992;-93
2023/06/06 08:36:01;;;;;;;;;;;;;;;7.34;100.00;99733.25;6100970;23;19917;-92
2023/06/06 08:38:26;;;;;;;;;;;;;;;7.09;100.00;99730.47;6100559;23;19920;-94
2023/06/06 08:41:36;;;;;;;;;;;;;;;6.95;100.00;99730.84;6100646;23;19932;-93
2023/06/06 08:43:56;;;;;;;;;;;;;;;6.81;100.00;99722.50;6120265;23;20348;-92
2023/06/06 08:46:23;;;;;;;;;;;;;;;6.75;100.00;99722.66;6152104;23;20328;-93
2023/06/06 08:48:52;;;;;;;;;;;;;;;6.63;100.00;99721.25;6160729;23;19919;-93
2023/06/06 08:51:23;;;;;;;;;;;;;;;6.67;100.00;99723.75;6160821;23;19923;-92
2023/06/06 08:53:55;;;;;;;;;;;;;;;6.55;100.00;99717.03;6165877;23;19970;-94
2023/06/06 08:56:26;;;;;;;;;;;;;;;6.44;100.00;99712.97;6159352;23;19995;-93
2023/06/06 08:59:42;;;;;;;;;;;;;;;6.43;100.00;99724.41;6158229;23;19963;-93
2023/06/06 09:02:01;;;;;;;;;;;;;;;6.35;100.00;99722.84;6178057;23;19916;-92
2023/06/06 09:04:55;;;;;;;;;;;;;;;6.33;100.00;99722.03;6158917;23;19959;-93
2023/06/06 09:07:33;;;;;;;;;;;;;;;6.32;100.00;99729.97;6155992;23;19916;-92
2023/06/06 09:10:13;;;;;;;;;;;;;;;6.43;100.00;99727.03;6157413;23;19927;-93
2023/06/06 09:13:17;;;;;;;;;;;;;;;;;;;;;
2023/06/06 09:16:02;;;;;;;;;;;;;;;6.31;100.00;99725.59;6183087;23;19995;-93
2023/06/06 09:18:31;;;;;;;;;;;;;;;6.25;100.00;99733.66;6188437;23;19912;-94
2023/06/06 09:21:33;;;;;;;;;;;;;;;6.21;100.00;99722.34;6159474;23;19916;-94
2023/06/06 09:25:11;;;;;;;;;;;;;;;;;;;;;
2023/06/06 09:30:39;;;;;;;;;;;;;;;6.13;100.00;99721.69;6078532;23;19951;-87
2023/06/06 09:33:05;;;;;;;;;;;;;;;6.11;100.00;99720.84;6107654;23;19913;-90
2023/06/06 09:38:39;;;;;;;;;;;;;;;15.13;100.00;99705.22;6033000;23;19917;-88
2023/06/06 09:41:04;;;;;;;;;;;;;;;14.64;100.00;99674.47;6160461;23;19916;-88
2023/06/06 09:43:40;;;;;;;;;;;;;;;8.59;100.00;99715.97;6183849;23;19951;-90
2023/06/06 09:46:07;;;;;;;;;;;;;;;7.38;100.00;99719.03;6185972;23;19920;-90
2023/06/06 09:48:33;;;;;;;;;;;;;;;7.02;100.00;99719.25;6186175;23;19916;-87
2023/06/06 09:50:58;;;;;;;;;;;;;;;6.96;100.00;99722.06;6186467;23;19959;-89
2023/06/06 09:53:24;;;;;;;;;;;;;;;6.88;100.00;99721.41;6159762;23;19916;-88
2023/06/06 09:55:49;;;;;;;;;;;;;;;6.66;100.00;99722.00;6160224;23;20201;-89
2023/06/06 09:58:19;;;;;;;;;;;;;;;6.65;100.00;99715.03;6184734;23;19912;-90
2023/06/06 10:00:45;;;;;;;;;;;;;;;6.49;100.00;99711.09;6186267;23;19966;-89
2023/06/06 10:03:18;;;;;;;;;;;;;;;6.41;100.00;99711.28;6160115;23;19916;-89
2023/06/06 10:05:44;;;;;;;;;;;;;;;6.42;100.00;99710.38;6159337;23;19916;-88
2023/06/06 10:08:10;;;;;;;;;;;;;;;6.40;100.00;99700.78;6186171;23;19908;-88
2023/06/06 10:10:40;;;;;;;;;;;;;;;6.38;100.00;99713.16;6159826;23;19913;-89
2023/06/06 10:13:06;;;;;;;;;;;;;;;6.35;100.00;99707.06;6158625;23;20225;-87
2023/06/06 10:15:31;;;;;;;;;;;;;;;6.30;100.00;99706.34;6159857;23;19923;-89
2023/06/06 10:17:57;;;;;;;;;;;;;;;6.26;100.00;99698.56;6186164;23;19955;-90
2023/06/06 10:20:43;;;;;;;;;;;;;;;6.19;100.00;99697.88;6186396;23;19920;-92
2023/06/06 10:23:14;;;;;;;;;;;;;;;6.23;100.00;99701.28;6123932;23;19956;-89
2023/06/06 10:25:42;;;;;;;;;;;;;;;6.12;100.00;99691.03;6097457;23;19925;-89
2023/06/06 10:28:34;;;;;;;;;;;;;;;6.20;100.00;99693.47;6096843;23;19995;-91
2023/06/06 10:31:25;;;;;;;;;;;;;;;6.13;100.00;99693.63;6098723;23;19917;-89
2023/06/06 10:34:00;;;;;;;;;;;;;;;6.21;100.00;99696.03;6084410;23;19921;-89
2023/06/06 10:36:46;;;;;;;;;;;;;;;;;;;;;
2023/06/06 10:39:20;;;;;;;;;;;;;;;6.27;100.00;99695.88;6123703;23;19991;-89
2023/06/06 10:42:08;;;;;;;;;;;;;;;6.27;100.00;99695.88;6099301;23;19913;-91
2023/06/06 10:44:48;;;;;;;;;;;;;;;;;;;;;
2023/06/06 10:47:26;;;;;;;;;;;;;;;6.40;100.00;99698.16;6141857;23;19999;-90
2023/06/06 10:50:30;;;;;;;;;;;;;;;6.19;100.00;99695.22;6158558;23;19916;-91
2023/06/06 10:53:06;;;;;;;;;;;;;;;6.13;100.00;99687.50;6184563;23;19995;-91
2023/06/06 10:55:33;;;;;;;;;;;;;;;6.05;100.00;99689.44;6185422;23;19912;-90
2023/06/06 10:58:15;;;;;;;;;;;;;;;;;;;;;
2023/06/06 11:00:50;;;;;;;;;;;;;;;5.95;100.00;99684.41;6185612;23;20003;-92
2023/06/06 11:03:31;;;;;;;;;;;;;;;5.91;100.00;99681.88;6158498;23;19912;-90
2023/06/06 11:06:00;;;;;;;;;;;;;;;6.00;100.00;99679.06;6133810;23;19918;-90
2023/06/06 11:08:38;;;;;;;;;;;;;;;6.06;100.00;99680.66;6158355;23;19991;-92
2023/06/06 11:11:17;;;;;;;;;;;;;;;5.97;100.00;99682.63;6158932;23;19920;-89
2023/06/06 11:14:02;;;;;;;;;;;;;;;5.94;100.00;99671.28;6182964;23;20288;-92
2023/06/06 11:16:30;;;;;;;;;;;;;;;5.90;100.00;99669.63;6158497;23;19979;-90
2023/06/06 11:19:02;;;;;;;;;;;;;;;5.97;100.00;99671.25;6185490;23;19916;-88
2023/06/06 11:21:28;;;;;;;;;;;;;;;5.95;100.00;99673.88;6159170;23;20291;-89
2023/06/06 11:23:53;;;;;;;;;;;;;;;5.88;100.00;99671.44;6159108;23;19913;-88
2023/06/06 11:26:20;;;;;;;;;;;;;;;5.95;100.00;99673.88;6158524;23;19916;-89
2023/06/06 11:28:46;;;;;;;;;;;;;;;5.90;100.00;99673.13;6156892;23;19912;-88
2023/06/06 11:31:13;;;;;;;;;;;;;;;5.96;100.00;99673.00;6158230;23;19919;-90
2023/06/06 11:33:41;;;;;;;;;;;;;;;5.99;100.00;99675.53;6159510;23;19935;-89
2023/06/06 11:36:07;;;;;;;;;;;;;;;5.92;100.00;99673.97;6157577;23;20280;-89
2023/06/06 11:38:32;;;;;;;;;;;;;;;5.88;100.00;99680.19;6158118;23;19970;-88
2023/06/06 11:41:00;;;;;;;;;;;;;;;5.93;100.00;99680.06;6158147;23;20316;-87
2023/06/06 11:43:25;;;;;;;;;;;;;;;5.92;100.00;99671.34;6156241;23;19919;-90
2023/06/06 11:46:08;;;;;;;;;;;;;;;5.94;100.00;99666.03;6158148;23;19920;-91
2023/06/06 11:48:36;;;;;;;;;;;;;;;5.92;100.00;99663.44;6157301;23;19920;-91
2023/06/06 11:51:13;;;;;;;;;;;;;;;6.06;100.00;99662.25;6151607;23;19916;-88
2023/06/06 11:53:39;;;;;;;;;;;;;;;5.94;100.00;99671.28;6126915;23;19916;-87
2023/06/06 11:56:16;;;;;;;;;;;;;;;5.91;100.00;99666.09;6126561;23;19959;-88
2023/06/06 11:58:41;;;;;;;;;;;;;;;5.94;100.00;99659.00;6149236;23;19916;-89
2023/06/06 12:01:10;;;;;;;;;;;;;;;5.92;100.00;99662.56;6126634;23;19951;-89
2023/06/06 12:03:39;;;;;;;;;;;;;;;5.98;100.00;99657.16;6127491;23;19972;-90
2023/06/06 12:06:07;;;;;;;;;;;;;;;5.94;100.00;99651.09;6127122;23;19913;-91
2023/06/06 12:08:35;;;;;;;;;;;;;;;5.90;100.00;99651.22;6127727;23;20508;-89
2023/06/06 12:11:39;;;;;;;;;;;;;;;5.82;100.00;99646.16;6151745;23;19920;-89
2023/06/06 12:14:11;;;;;;;;;;;;;;;5.88;100.00;99643.38;5981520;23;19973;-89
2023/06/06 12:16:36;;;;;;;;;;;;;;;5.84;100.00;99644.38;6005943;23;19937;-88
2023/06/06 12:19:04;;;;;;;;;;;;;;;5.88;100.00;99637.25;6109556;23;19912;-88
2023/06/06 12:21:42;;;;;;;;;;;;;;;5.81;100.00;99645.31;6183599;23;19918;-94
2023/06/06 12:24:22;;;;;;;;;;;;;;;5.99;100.00;99638.72;6183608;23;19983;-90
2023/06/06 12:27:02;;;;;;;;;;;;;;;5.90;100.00;99633.66;6158554;23;19912;-88
2023/06/06 12:29:54;;;;;;;;;;;;;;;5.90;100.00;99636.28;6157335;23;19920;-88
2023/06/06 12:32:25;;;;;;;;;;;;;;;5.92;100.00;99641.50;6184845;23;19919;-89
2023/06/06 12:35:01;;;;;;;;;;;;;;;5.86;100.00;99626.78;6158704;23;19916;-89
2023/06/06 12:37:43;;;;;;;;;;;;;;;5.85;100.00;99630.31;6159342;23;19940;-88
2023/06/06 12:40:23;;;;;;;;;;;;;;;5.86;100.00;99625.94;6158794;23;20217;-87
2023/06/06 12:42:57;;;;;;;;;;;;;;;5.94;100.00;99632.69;6157262;23;19948;-89
2023/06/06 12:45:23;;;;;;;;;;;;;;;5.84;100.00;99623.34;6122310;23;19913;-88
2023/06/06 12:47:53;;;;;;;;;;;;;;;5.83;100.00;99626.84;6122971;23;19912;-89
2023/06/06 12:50:19;;;;;;;;;;;;;;;5.85;100.00;99621.56;6095877;23;20246;-90
2023/06/06 12:52:44;;;;;;;;;;;;;;;5.85;100.00;99625.03;6122148;23;19913;-90
2023/06/06 12:55:10;;;;;;;;;;;;;;;5.85;100.00;99626.81;6122510;23;19913;-87
2023/06/06 12:57:35;;;;;;;;;;;;;;;5.82;100.00;99623.38;6095648;23;19988;-91
2023/06/06 13:00:11;;;;;;;;;;;;;;;5.85;100.00;99624.19;6095864;23;19999;-89
2023/06/06 13:02:37;;;;;;;;;;;;;;;5.84;100.00;99618.06;6121687;23;20341;-91
2023/06/06 13:05:03;;;;;;;;;;;;;;;5.86;100.00;99616.25;6096047;23;19919;-89
2023/06/06 13:07:28;;;;;;;;;;;;;;;5.86;100.00;99616.25;6121145;23;20281;-89
2023/06/06 13:09:58;;;;;;;;;;;;;;;5.84;100.00;99618.06;6127117;23;19912;-89
2023/06/06 13:12:26;;;;;;;;;;;;;;;5.83;100.00;99611.06;6156514;23;20372;-88
2023/06/06 13:14:55;;;;;;;;;;;;;;;5.88;100.00;99617.06;6158160;23;19917;-88
2023/06/06 13:17:23;;;;;;;;;;;;;;;5.79;100.00;99614.69;6157173;23;19916;-89
2023/06/06 13:19:52;;;;;;;;;;;;;;;5.83;100.00;99613.72;6183820;23;20403;-88
2023/06/06 13:22:18;;;;;;;;;;;;;;;5.78;100.00;99602.47;6158715;23;19967;-89
2023/06/06 13:24:43;;;;;;;;;;;;;;;5.82;100.00;99611.97;6157735;23;19916;-87
2023/06/06 13:27:10;;;;;;;;;;;;;;;5.78;100.00;99607.72;6182369;23;19924;-88
2023/06/06 13:29:46;;;;;;;;;;;;;;;5.81;100.00;99618.16;6184288;23;19912;-88
2023/06/06 13:32:11;;;;;;;;;;;;;;;5.74;100.00;99608.69;6157589;23;20446;-89
2023/06/06 13:34:39;;;;;;;;;;;;;;;5.86;100.00;99613.63;6157047;23;20384;-89
2023/06/06 13:37:04;;;;;;;;;;;;;;;5.86;100.00;99613.63;6120917;23;19917;-87
2023/06/06 13:39:29;;;;;;;;;;;;;;;5.75;100.00;99610.41;6096047;23;20007;-87
2023/06/06 13:41:55;;;;;;;;;;;;;;;5.83;100.00;99611.94;6096783;23;19913;-87
2023/06/06 13:44:21;;;;;;;;;;;;;;;5.76;100.00;99610.38;6093934;23;20345;-89
2023/06/06 13:46:47;;;;;;;;;;;;;;;5.79;100.00;99617.31;6096771;23;20055;-86
2023/06/06 13:49:13;;;;;;;;;;;;;;;5.73;100.00;99610.47;6096744;23;20489;-92
2023/06/06 13:51:42;;;;;;;;;;;;;;;5.74;100.00;99613.94;6096754;23;19920;-89
2023/06/06 13:54:10;;;;;;;;;;;;;;;5.78;100.00;99610.34;6097754;23;19936;-88
2023/06/06 13:56:35;;;;;;;;;;;;;;;17.30;100.00;99571.13;6096884;23;20754;-88
2023/06/06 13:59:02;;;;;;;;;;;;;;;19.84;100.00;99558.25;6095376;23;19952;-83
2023/06/06 14:01:28;;;;;;;;;;;;;;;11.80;100.00;99590.94;6148550;23;19948;-80
2023/06/06 14:03:53;;;;;;;;;;;;;;;8.77;100.00;99603.47;6183424;23;19924;-80
2023/06/06 14:06:19;;;;;;;;;;;;;;;8.08;100.00;99603.34;6183476;23;19917;-80
2023/06/06 14:08:45;;;;;;;;;;;;;;;7.77;100.00;99609.69;6156902;23;19999;-81
2023/06/06 14:11:10;;;;;;;;;;;;;;;7.55;100.00;99606.94;6157646;23;19946;-81
2023/06/06 14:13:36;;;;;;;;;;;;;;;7.40;100.00;99601.25;6157344;23;20375;-80
2023/06/06 14:16:01;;;;;;;;;;;;;;;7.35;100.00;99597.03;6181582;23;19991;-80
2023/06/06 14:18:26;;;;;;;;;;;;;;;7.24;100.00;99610.53;6156330;23;20019;-81
2023/06/06 14:21:19;;;;;;;;;;;;;;;7.23;100.00;99608.84;6184533;23;19923;-80
2023/06/06 14:23:44;;;;;;;;;;;;;;;7.13;100.00;99610.88;6156374;23;20241;-81
2023/06/06 14:26:10;;;;;;;;;;;;;;;7.03;100.00;99607.66;6183706;23;19923;-80
2023/06/06 14:28:35;;;;;;;;;;;;;;;7.03;100.00;99601.53;6184112;23;19919;-80
2023/06/06 14:31:02;;;;;;;;;;;;;;;7.00;100.00;99602.50;6158808;23;19916;-81
2023/06/06 14:33:28;;;;;;;;;;;;;;;6.97;100.00;99607.84;6185080;23;19999;-80
2023/06/06 14:35:54;;;;;;;;;;;;;;;6.95;100.00;99599.16;6157880;23;19963;-80
2023/06/06 14:38:19;;;;;;;;;;;;;;;6.96;100.00;99600.03;6159198;23;19995;-80
2023/06/06 14:40:44;;;;;;;;;;;;;;;6.93;100.00;99600.97;6184358;23;20390;-81
2023/06/06 14:43:10;;;;;;;;;;;;;;;6.90;100.00;99599.28;6184600;23;19922;-87
2023/06/06 14:48:21;;;;;;;;;;;;;;;6.84;100.00;99598.63;6180913;23;19991;-90
2023/06/06 14:50:48;;;;;;;;;;;;;;;6.82;100.00;99597.81;6156535;23;19981;-91
2023/06/06 14:53:16;;;;;;;;;;;;;;;6.81;100.00;99596.97;6158323;23;20397;-91
2023/06/06 14:55:41;;;;;;;;;;;;;;;6.89;100.00;99599.34;6159212;23;19923;-90
2023/06/06 14:58:07;;;;;;;;;;;;;;;6.79;100.00;99598.75;6182465;23;19913;-90
2023/06/06 15:00:40;;;;;;;;;;;;;;;6.77;100.00;99594.47;6183395;23;20276;-91
2023/06/06 15:03:05;;;;;;;;;;;;;;;6.78;100.00;99596.16;6159237;23;20233;-89
2023/06/06 15:05:31;;;;;;;;;;;;;;;6.86;100.00;99594.16;6158357;23;19924;-91
2023/06/06 15:07:57;;;;;;;;;;;;;;;6.80;100.00;99591.75;6159161;23;19947;-90
2023/06/06 15:10:25;;;;;;;;;;;;;;;6.77;100.00;99589.19;6158563;23;19912;-93
2023/06/06 15:12:50;;;;;;;;;;;;;;;6.78;100.00;99588.25;6158791;23;19920;-91
2023/06/06 15:15:15;;;;;;;;;;;;;;;6.74;100.00;99587.50;6184465;23;20264;-90
2023/06/06 15:17:40;;;;;;;;;;;;;;;6.81;100.00;99593.44;6159598;23;19948;-90
2023/06/06 15:20:07;;;;;;;;;;;;;;;6.92;100.00;99601.88;6159241;23;19916;-89
2023/06/06 15:22:35;;;;;;;;;;;;;;;6.87;100.00;99595.88;6156732;23;19963;-90
2023/06/06 15:25:01;;;;;;;;;;;;;;;6.92;100.00;99599.25;6157101;23;19966;-88
2023/06/06 15:27:28;;;;;;;;;;;;;;;6.90;100.00;99601.06;6183310;23;20347;-89
2023/06/06 15:29:55;;;;;;;;;;;;;;;6.91;100.00;99598.38;6182271;23;19912;-88
2023/06/06 15:32:21;;;;;;;;;;;;;;;6.99;100.00;99594.63;6183584;23;19916;-88
2023/06/06 15:37:50;;;;;;;;;;;;;;;6.84;100.00;99598.63;6183500;23;20035;-95
2023/06/06 15:40:16;;;;;;;;;;;;;;;6.82;100.00;99595.19;6158901;23;19955;-86
2023/06/06 15:42:41;;;;;;;;;;;;;;;6.90;100.00;99591.38;6157523;23;19921;-91
2023/06/06 15:45:06;;;;;;;;;;;;;;;6.87;100.00;99590.63;6181815;23;19913;-90
2023/06/06 15:47:32;;;;;;;;;;;;;;;6.91;100.00;99589.63;6183444;23;20395;-91
2023/06/06 15:49:57;;;;;;;;;;;;;;;6.99;100.00;99586.72;6183785;23;19919;-88
2023/06/06 15:52:22;;;;;;;;;;;;;;;6.93;100.00;99590.44;6183744;23;20435;-88
2023/06/06 15:54:48;;;;;;;;;;;;;;;6.94;100.00;99586.91;6185396;23;19919;-89
2023/06/06 15:57:13;;;;;;;;;;;;;;;6.82;100.00;99582.00;6185552;23;19916;-89
2023/06/06 15:59:38;;;;;;;;;;;;;;;6.80;100.00;99579.41;6183986;23;20225;-88
2023/06/06 16:02:04;;;;;;;;;;;;;;;6.78;100.00;99580.38;6185200;23;20244;-91
2023/06/06 16:04:30;;;;;;;;;;;;;;;6.79;100.00;99576.84;6158772;23;19947;-90
2023/06/06 16:06:55;;;;;;;;;;;;;;;6.77;100.00;99581.28;6183864;23;20248;-89
2023/06/06 16:09:21;;;;;;;;;;;;;;;6.82;100.00;99576.75;6183020;23;19920;-88
2023/06/06 16:11:46;;;;;;;;;;;;;;;6.76;100.00;99576.94;6158668;23;19947;-90
2023/06/06 16:14:12;;;;;;;;;;;;;;;6.82;100.00;99576.75;6184474;23;20380;-88
2023/06/06 16:16:37;;;;;;;;;;;;;;;6.84;100.00;99569.66;6182585;23;19995;-88
2023/06/06 16:19:03;;;;;;;;;;;;;;;6.89;100.00;99568.59;6184979;23;20236;-88
2023/06/06 16:21:32;;;;;;;;;;;;;;;6.76;100.00;99567.25;6159137;23;19912;-92
2023/06/06 16:27:11;;;;;;;;;;;;;;;6.74;100.00;99563.81;6146237;23;19931;-89
2023/06/06 16:29:36;;;;;;;;;;;;;;;6.73;100.00;99562.94;6155552;23;19912;-91
2023/06/06 16:32:02;;;;;;;;;;;;;;;6.94;100.00;99571.09;6158840;23;19920;-93
2023/06/06 16:34:27;;;;;;;;;;;;;;;6.89;100.00;99583.53;6158805;23;19912;-89
2023/06/06 16:36:54;;;;;;;;;;;;;;;7.37;100.00;99568.84;6158706;23;19927;-88
2023/06/06 16:39:19;;;;;;;;;;;;;;;7.05;100.00;99578.63;6185015;23;19935;-88
2023/06/06 16:41:44;;;;;;;;;;;;;;;7.01;100.00;99574.41;6159019;23;20324;-88
2023/06/06 16:44:11;;;;;;;;;;;;;;;6.93;100.00;99579.06;6158569;23;19944;-89
2023/06/06 16:46:39;;;;;;;;;;;;;;;6.85;100.00;99582.78;6158431;23;20435;-89
2023/06/06 16:49:04;;;;;;;;;;;;;;;6.86;100.00;99578.34;6184473;23;19921;-89
2023/06/06 16:51:29;;;;;;;;;;;;;;;7.02;100.00;99578.75;6157166;23;19913;-89
2023/06/06 16:53:58;;;;;;;;;;;;;;;6.94;100.00;99581.63;6184273;23;19919;-88
2023/06/06 16:56:23;;;;;;;;;;;;;;;6.88;100.00;99572.13;6158426;23;19995;-89
2023/06/06 16:58:49;;;;;;;;;;;;;;;6.85;100.00;99576.66;6158407;23;19912;-89
2023/06/06 17:01:14;;;;;;;;;;;;;;;6.81;100.00;99575.00;6181541;23;19945;-88
2023/06/06 17:03:40;;;;;;;;;;;;;;;6.86;100.00;99579.25;6157898;23;19924;-88
2023/06/06 17:06:15;;;;;;;;;;;;;;;6.78;100.00;99572.47;6184453;23;19916;-91
2023/06/06 17:08:41;;;;;;;;;;;;;;;6.75;100.00;99577.81;6184740;23;19975;-89
2023/06/06 17:11:06;;;;;;;;;;;;;;;6.71;100.00;99577.91;6158066;23;19912;-88
2023/06/06 17:13:32;;;;;;;;;;;;;;;6.98;100.00;99571.84;6158602;23;19912;-89
2023/06/06 17:15:57;;;;;;;;;;;;;;;6.77;100.00;99573.41;6183519;23;19951;-90
2023/06/06 17:18:22;;;;;;;;;;;;;;;6.72;100.00;99576.16;6158582;23;20343;-88
2023/06/06 17:20:47;;;;;;;;;;;;;;;6.74;100.00;99574.34;6184918;23;19919;-88
2023/06/06 17:23:13;;;;;;;;;;;;;;;6.61;100.00;99570.38;6184580;23;19920;-88
2023/06/06 17:25:38;;;;;;;;;;;;;;;6.41;100.00;99570.94;6158218;23;19920;-89
2023/06/06 17:28:03;;;;;;;;;;;;;;;6.38;100.00;99571.03;6184212;23;19955;-86
2023/06/06 17:30:29;;;;;;;;;;;;;;;6.39;100.00;99567.50;6182950;23;19916;-88
2023/06/06 17:32:54;;;;;;;;;;;;;;;6.44;100.00;99566.44;6184645;23;19935;-89
2023/06/06 17:35:21;;;;;;;;;;;;;;;6.40;100.00;99567.47;6156495;23;19916;-87
2023/06/06 17:40:28;;;;;;;;;;;;;;;6.19;100.00;99571.56;6176112;23;19924;-88
2023/06/06 17:42:53;;;;;;;;;;;;;;;6.33;100.00;99566.78;6157655;23;19912;-89
2023/06/06 17:45:19;;;;;;;;;;;;;;;6.32;100.00;99567.69;6156140;23;19920;-89
2023/06/06 17:47:44;;;;;;;;;;;;;;;6.51;100.00;99569.75;6160328;23;19922;-89
2023/06/06 17:50:09;;;;;;;;;;;;;;;6.26;100.00;99567.84;6159865;23;19916;-88
2023/06/06 17:52:35;;;;;;;;;;;;;;;6.17;100.00;99576.88;6185400;23;19919;-88
2023/06/06 17:55:02;;;;;;;;;;;;;;;6.16;100.00;99579.56;6159552;23;19913;-88
2023/06/06 17:57:28;;;;;;;;;;;;;;;6.33;100.00;99574.69;6159394;23;20022;-89
2023/06/06 18:00:07;;;;;;;;;;;;;;;6.34;100.00;99580.78;6159694;23;19943;-96
2023/06/06 18:02:32;;;;;;;;;;;;;;;6.21;100.00;99580.28;6160236;23;20244;-90
2023/06/06 18:04:58;;;;;;;;;;;;;;;6.22;100.00;99581.13;6160002;23;19916;-89
2023/06/06 18:07:23;;;;;;;;;;;;;;;6.17;100.00;99586.53;6185209;23;20221;-89
2023/06/06 18:09:48;;;;;;;;;;;;;;;6.15;100.00;99596.22;6185838;23;19923;-89
2023/06/06 18:12:14;;;;;;;;;;;;;;;6.18;100.00;99590.88;6186510;23;19912;-89
2023/06/06 18:14:42;;;;;;;;;;;;;;;6.02;100.00;99595.72;6158964;23;20222;-91
2023/06/06 18:17:09;;;;;;;;;;;;;;;6.16;100.00;99593.56;6186128;23;19912;-88
2023/06/06 18:19:34;;;;;;;;;;;;;;;6.13;100.00;99593.63;6160401;23;19919;-89
2023/06/06 18:22:00;;;;;;;;;;;;;;;6.14;100.00;99594.50;6184785;23;19916;-88
2023/06/06 18:24:25;;;;;;;;;;;;;;;6.18;100.00;99590.88;6158163;23;19963;-89
2023/06/06 18:26:50;;;;;;;;;;;;;;;6.15;100.00;99590.97;6185075;23;19946;-88
2023/06/06 18:29:15;;;;;;;;;;;;;;;6.23;100.00;99588.13;6159523;23;19912;-88
2023/06/06 18:31:41;;;;;;;;;;;;;;;6.30;100.00;99590.53;6157885;23;19967;-88
2023/06/06 18:34:06;;;;;;;;;;;;;;;6.41;100.00;99592.84;6158985;23;20295;-91
2023/06/06 18:36:31;;;;;;;;;;;;;;;6.51;100.00;99588.16;6159677;23;19916;-91
2023/06/06 18:38:57;;;;;;;;;;;;;;;6.57;100.00;99593.25;6158988;23;19995;-88
2023/06/06 18:41:23;;;;;;;;;;;;;;;6.60;100.00;99595.81;6184931;23;19923;-88
2023/06/06 18:43:48;;;;;;;;;;;;;;;6.67;100.00;99604.38;6185486;23;19912;-89
2023/06/06 18:46:13;;;;;;;;;;;;;;;6.73;100.00;99604.19;6158395;23;20325;-88
2023/06/06 18:48:40;;;;;;;;;;;;;;;6.78;100.00;99606.69;6185653;23;19913;-86
2023/06/06 18:51:07;;;;;;;;;;;;;;;6.84;100.00;99606.53;6186749;23;20288;-89
2023/06/06 18:56:47;;;;;;;;;;;;;;;6.90;100.00;99611.59;6185546;23;19938;-91
2023/06/06 18:59:12;;;;;;;;;;;;;;;6.93;100.00;99610.66;6185314;23;19922;-88
2023/06/06 19:01:38;;;;;;;;;;;;;;;6.95;100.00;99604.41;6157621;23;19912;-88
2023/06/06 19:04:03;;;;;;;;;;;;;;;6.98;100.00;99604.31;6185033;23;19931;-90
2023/06/06 19:06:28;;;;;;;;;;;;;;;7.04;100.00;99614.69;6158783;23;20324;-91
2023/06/06 19:08:54;;;;;;;;;;;;;;;7.02;100.00;99605.97;6158459;23;20329;-90
2023/06/06 19:11:19;;;;;;;;;;;;;;;7.09;100.00;99617.16;6159195;23;20236;-89
2023/06/06 19:14:19;;;;;;;;;;;;;;;7.14;100.00;99617.03;6160466;23;20002;-90
2023/06/06 19:16:44;;;;;;;;;;;;;;;7.14;100.00;99625.78;6077609;23;19966;-89
2023/06/06 19:19:10;;;;;;;;;;;;;;;7.18;100.00;99632.69;6185468;23;19947;-89
2023/06/06 19:21:36;;;;;;;;;;;;;;;7.17;100.00;99638.00;6158741;23;19912;-88
2023/06/06 19:24:02;;;;;;;;;;;;;;;7.16;100.00;99642.41;6184756;23;19916;-88
2023/06/06 19:26:27;;;;;;;;;;;;;;;7.25;100.00;99643.91;6185076;23;20263;-87
2023/06/06 19:28:52;;;;;;;;;;;;;;;7.23;100.00;99638.69;6157768;23;19913;-89
2023/06/06 19:31:17;;;;;;;;;;;;;;;7.22;100.00;99639.56;6156589;23;20304;-88
2023/06/06 19:33:43;;;;;;;;;;;;;;;7.23;100.00;99640.47;6184311;23;20102;-87
2023/06/06 19:36:08;;;;;;;;;;;;;;;7.30;100.00;99646.41;6158179;23;19916;-88
2023/06/06 19:38:33;;;;;;;;;;;;;;;7.25;100.00;99659.72;6157612;23;19912;-89
2023/06/06 19:44:05;;;;;;;;;;;;;;;7.34;100.00;99661.19;6184600;23;19923;-89
2023/06/06 19:46:30;;;;;;;;;;;;;;;7.31;100.00;99662.16;6157524;23;19979;-89
2023/06/06 19:48:56;;;;;;;;;;;;;;;7.32;100.00;99663.00;6158273;23;19998;-88
2023/06/06 19:51:21;;;;;;;;;;;;;;;7.36;100.00;99672.56;6159630;23;19991;-89
2023/06/06 19:53:48;;;;;;;;;;;;;;;7.39;100.00;99675.97;6156645;23;20694;-90
2023/06/06 19:56:14;;;;;;;;;;;;;;;7.38;100.00;99676.84;6183795;23;19986;-89
2023/06/06 19:58:39;;;;;;;;;;;;;;;7.35;100.00;99681.38;6156723;23;20325;-90
2023/06/06 20:01:05;;;;;;;;;;;;;;;7.30;100.00;99684.16;6156523;23;19947;-89
2023/06/06 20:03:30;;;;;;;;;;;;;;;7.31;100.00;99683.25;6183972;23;19920;-88
2023/06/06 20:05:56;;;;;;;;;;;;;;;7.34;100.00;99690.19;6157038;23;19916;-90
2023/06/06 20:08:23;;;;;;;;;;;;;;;7.31;100.00;99691.16;6158317;23;19940;-89
2023/06/06 20:10:49;;;;;;;;;;;;;;;7.37;100.00;99685.69;6183326;23;19946;-88
2023/06/06 20:13:14;;;;;;;;;;;;;;;7.34;100.00;99696.34;6185641;23;19944;-87
2023/06/06 20:15:39;;;;;;;;;;;;;;;7.35;100.00;99691.91;6156612;23;19916;-88
2023/06/06 20:18:05;;;;;;;;;;;;;;;7.36;100.00;99691.88;6158709;23;19913;-89
2023/06/06 20:20:31;;;;;;;;;;;;;;;7.34;100.00;99696.34;6185092;23;19951;-90
2023/06/06 20:22:56;;;;;;;;;;;;;;;7.37;100.00;99698.00;6183359;23;19912;-91
2023/06/06 20:25:22;;;;;;;;;;;;;;;7.34;100.00;99701.59;6184303;23;19924;-91
2023/06/06 20:27:51;;;;;;;;;;;;;;;7.33;100.00;99704.28;6157577;23;19919;-89
2023/06/06 20:30:16;;;;;;;;;;;;;;;7.35;100.00;99708.59;6155894;23;19915;-90
2023/06/06 20:32:41;;;;;;;;;;;;;;;7.33;100.00;99704.28;6158173;23;19927;-90
2023/06/06 20:35:07;;;;;;;;;;;;;;;7.36;100.00;99702.41;6157399;23;19923;-90
2023/06/06 20:37:32;;;;;;;;;;;;;;;7.35;100.00;99705.94;6157559;23;19916;-89
2023/06/06 20:42:42;;;;;;;;;;;;;;;7.35;100.00;99719.13;6184672;23;19993;-89
2023/06/06 20:45:07;;;;;;;;;;;;;;;7.38;100.00;99723.44;6155735;23;19920;-90
2023/06/06 20:47:33;;;;;;;;;;;;;;;7.38;100.00;99724.31;6158624;23;19912;-89
2023/06/06 20:49:58;;;;;;;;;;;;;;;7.34;100.00;99722.69;6184512;23;19916;-91
2023/06/06 20:52:25;;;;;;;;;;;;;;;7.36;100.00;99726.13;6158829;23;19999;-91
2023/06/06 20:54:52;;;;;;;;;;;;;;;7.34;100.00;99727.97;6157817;23;19970;-91
2023/06/06 20:57:18;;;;;;;;;;;;;;;7.32;100.00;99724.50;6182736;23;19923;-90
2023/06/06 20:59:45;;;;;;;;;;;;;;;7.36;100.00;99735.81;6182987;23;19912;-92
2023/06/06 21:02:11;;;;;;;;;;;;;;;7.35;100.00;99734.94;6157634;23;19959;-92
2023/06/06 21:04:36;;;;;;;;;;;;;;;7.37;100.00;99738.41;6184104;23;19916;-90
2023/06/06 21:07:01;;;;;;;;;;;;;;;7.35;100.00;99734.94;6184204;23;20008;-90
2023/06/06 21:09:27;;;;;;;;;;;;;;;7.32;100.00;99735.03;6183778;23;20218;-91
2023/06/06 21:11:53;;;;;;;;;;;;;;;7.38;100.00;99734.00;6185146;23;19912;-92
2023/06/06 21:14:18;;;;;;;;;;;;;;;7.36;100.00;99730.56;6158737;23;19923;-91
2023/06/06 21:16:43;;;;;;;;;;;;;;;7.38;100.00;99737.50;6184308;23;19947;-91
2023/06/06 21:19:09;;;;;;;;;;;;;;;7.99;100.00;99736.44;6158516;23;20241;-84
2023/06/06 21:21:35;;;;;;;;;;;;;;;6.80;100.00;99741.84;6185404;23;19987;-85
2023/06/06 21:24:00;;;;;;;;;;;;;;;6.02;100.00;99742.16;6183940;23;19936;-84
2023/06/06 21:26:25;;;;;;;;;;;;;;;5.69;100.00;99740.25;6184624;23;20226;-83
2023/06/06 21:28:51;;;;;;;;;;;;;;;5.55;100.00;99740.59;6185483;23;20343;-89
2023/06/06 21:31:16;;;;;;;;;;;;;;;5.41;100.00;99735.63;6158668;23;19916;-85